sensor_id;sensor_type;location;lat;lon;timestamp;P1;durP1;ratioP1;P2;durP2;ratioP2
63943;SDS011;50121;51.218;7.664;2022-11-27T00:00:16;9.07;;;6.05;;
63943;SDS011;50121;51.218;7.664;2022-11-27T00:02:43;6.28;;;5.65;;
63943;SDS011;50121;51.218;7.664;2022-11-27T00:05:11;10.07;;;6.63;;
63943;SDS011;50121;51.218;7.664;2022-11-27T00:07:39;10.05;;;5.90;;
63943;SDS011;50121;51.218;7.664;2022-11-27T00:10:06;8.10;;;6.45;;
63943;SDS011;50121;51.218;7.664;2022-11-27T00:12:35;9.38;;;7.40;;
63943;SDS011;50121;51.218;7.664;2022-11-27T00:15:03;7.55;;;6.05;;
63943;SDS011;50121;51.218;7.664;2022-11-27T00:17:30;6.75;;;5.70;;
63943;SDS011;50121;51.218;7.664;2022-11-27T00:19:58;11.30;;;6.75;;
63943;SDS011;50121;51.218;7.664;2022-11-27T00:22:26;10.40;;;6.13;;
63943;SDS011;50121;51.218;7.664;2022-11-27T00:24:53;8.70;;;6.57;;
63943;SDS011;50121;51.218;7.664;2022-11-27T00:27:21;10.63;;;6.25;;
63943;SDS011;50121;51.218;7.664;2022-11-27T00:29:48;8.85;;;6.47;;
63943;SDS011;50121;51.218;7.664;2022-11-27T00:32:16;12.02;;;6.47;;
63943;SDS011;50121;51.218;7.664;2022-11-27T00:34:43;10.05;;;6.60;;
63943;SDS011;50121;51.218;7.664;2022-11-27T00:37:11;7.30;;;6.50;;
63943;SDS011;50121;51.218;7.664;2022-11-27T00:39:40;9.60;;;7.22;;
63943;SDS011;50121;51.218;7.664;2022-11-27T00:42:07;13.02;;;6.88;;
63943;SDS011;50121;51.218;7.664;2022-11-27T00:44:35;9.65;;;6.60;;
63943;SDS011;50121;51.218;7.664;2022-11-27T00:47:03;9.95;;;7.00;;
63943;SDS011;50121;51.218;7.664;2022-11-27T00:49:30;8.52;;;6.82;;
63943;SDS011;50121;51.218;7.664;2022-11-27T00:51:58;12.75;;;7.25;;
63943;SDS011;50121;51.218;7.664;2022-11-27T00:54:25;8.80;;;6.55;;
63943;SDS011;50121;51.218;7.664;2022-11-27T00:56:53;10.40;;;6.57;;
63943;SDS011;50121;51.218;7.664;2022-11-27T00:59:20;8.05;;;6.45;;
63943;SDS011;50121;51.218;7.664;2022-11-27T01:01:48;9.02;;;6.97;;
63943;SDS011;50121;51.218;7.664;2022-11-27T01:04:16;10.75;;;6.70;;
63943;SDS011;50121;51.218;7.664;2022-11-27T01:06:43;8.73;;;6.70;;
63943;SDS011;50121;51.218;7.664;2022-11-27T01:09:11;8.77;;;6.93;;
63943;SDS011;50121;51.218;7.664;2022-11-27T01:11:39;7.65;;;6.47;;
63943;SDS011;50121;51.218;7.664;2022-11-27T01:14:09;9.45;;;6.45;;
63943;SDS011;50121;51.218;7.664;2022-11-27T01:16:37;10.27;;;6.72;;
63943;SDS011;50121;51.218;7.664;2022-11-27T01:19:08;9.73;;;7.00;;
63943;SDS011;50121;51.218;7.664;2022-11-27T01:21:36;11.15;;;6.57;;
63943;SDS011;50121;51.218;7.664;2022-11-27T01:24:04;10.30;;;6.97;;
63943;SDS011;50121;51.218;7.664;2022-11-27T01:26:32;9.77;;;6.97;;
63943;SDS011;50121;51.218;7.664;2022-11-27T01:28:59;9.93;;;6.88;;
63943;SDS011;50121;51.218;7.664;2022-11-27T01:31:28;12.30;;;7.32;;
63943;SDS011;50121;51.218;7.664;2022-11-27T01:34:00;15.38;;;7.15;;
63943;SDS011;50121;51.218;7.664;2022-11-27T01:36:28;11.35;;;6.63;;
63943;SDS011;50121;51.218;7.664;2022-11-27T01:38:55;7.88;;;6.82;;
63943;SDS011;50121;51.218;7.664;2022-11-27T01:41:33;8.85;;;6.63;;
63943;SDS011;50121;51.218;7.664;2022-11-27T01:44:02;9.77;;;6.72;;
63943;SDS011;50121;51.218;7.664;2022-11-27T01:49:04;8.98;;;6.03;;
63943;SDS011;50121;51.218;7.664;2022-11-27T01:54:25;8.55;;;5.78;;
63943;SDS011;50121;51.218;7.664;2022-11-27T01:56:54;9.38;;;6.80;;
63943;SDS011;50121;51.218;7.664;2022-11-27T01:59:22;11.68;;;6.63;;
63943;SDS011;50121;51.218;7.664;2022-11-27T02:01:52;10.05;;;6.28;;
63943;SDS011;50121;51.218;7.664;2022-11-27T02:04:19;8.35;;;6.80;;
63943;SDS011;50121;51.218;7.664;2022-11-27T02:06:47;10.45;;;6.43;;
63943;SDS011;50121;51.218;7.664;2022-11-27T02:09:14;9.77;;;6.50;;
63943;SDS011;50121;51.218;7.664;2022-11-27T02:14:25;10.38;;;5.88;;
63943;SDS011;50121;51.218;7.664;2022-11-27T02:25:38;12.93;;;6.88;;
63943;SDS011;50121;51.218;7.664;2022-11-27T02:31:09;9.63;;;6.22;;
63943;SDS011;50121;51.218;7.664;2022-11-27T02:33:39;9.07;;;6.25;;
63943;SDS011;50121;51.218;7.664;2022-11-27T02:36:08;11.32;;;6.68;;
63943;SDS011;50121;51.218;7.664;2022-11-27T02:38:43;9.77;;;6.57;;
63943;SDS011;50121;51.218;7.664;2022-11-27T02:41:16;13.30;;;6.80;;
63943;SDS011;50121;51.218;7.664;2022-11-27T02:43:49;11.30;;;6.80;;
63943;SDS011;50121;51.218;7.664;2022-11-27T02:46:18;9.70;;;7.00;;
63943;SDS011;50121;51.218;7.664;2022-11-27T02:48:47;11.18;;;6.72;;
63943;SDS011;50121;51.218;7.664;2022-11-27T02:51:22;9.90;;;6.68;;
63943;SDS011;50121;51.218;7.664;2022-11-27T02:53:58;9.73;;;5.70;;
63943;SDS011;50121;51.218;7.664;2022-11-27T02:56:29;12.75;;;7.03;;
63943;SDS011;50121;51.218;7.664;2022-11-27T02:58:58;9.88;;;6.82;;
63943;SDS011;50121;51.218;7.664;2022-11-27T03:01:28;13.43;;;6.75;;
63943;SDS011;50121;51.218;7.664;2022-11-27T03:03:57;16.70;;;6.53;;
63943;SDS011;50121;51.218;7.664;2022-11-27T03:06:30;10.38;;;7.25;;
63943;SDS011;50121;51.218;7.664;2022-11-27T03:09:05;10.60;;;6.40;;
63943;SDS011;50121;51.218;7.664;2022-11-27T03:11:34;11.50;;;6.85;;
63943;SDS011;50121;51.218;7.664;2022-11-27T03:14:03;14.50;;;6.75;;
63943;SDS011;50121;51.218;7.664;2022-11-27T03:16:55;11.35;;;7.10;;
63943;SDS011;50121;51.218;7.664;2022-11-27T03:21:59;12.15;;;7.45;;
63943;SDS011;50121;51.218;7.664;2022-11-27T03:24:27;10.90;;;7.38;;
63943;SDS011;50121;51.218;7.664;2022-11-27T03:26:58;11.43;;;6.82;;
63943;SDS011;50121;51.218;7.664;2022-11-27T03:29:28;9.95;;;6.88;;
63943;SDS011;50121;51.218;7.664;2022-11-27T03:31:57;11.68;;;7.05;;
63943;SDS011;50121;51.218;7.664;2022-11-27T03:34:24;15.35;;;6.07;;
63943;SDS011;50121;51.218;7.664;2022-11-27T03:36:52;9.77;;;6.38;;
63943;SDS011;50121;51.218;7.664;2022-11-27T03:39:20;12.23;;;6.10;;
63943;SDS011;50121;51.218;7.664;2022-11-27T03:47:16;10.90;;;6.57;;
63943;SDS011;50121;51.218;7.664;2022-11-27T03:55:22;12.85;;;6.40;;
63943;SDS011;50121;51.218;7.664;2022-11-27T04:00:21;13.85;;;6.13;;
63943;SDS011;50121;51.218;7.664;2022-11-27T04:02:50;10.40;;;6.68;;
63943;SDS011;50121;51.218;7.664;2022-11-27T04:05:18;10.05;;;6.45;;
63943;SDS011;50121;51.218;7.664;2022-11-27T04:07:46;12.93;;;7.15;;
63943;SDS011;50121;51.218;7.664;2022-11-27T04:10:14;10.93;;;6.20;;
63943;SDS011;50121;51.218;7.664;2022-11-27T04:12:42;11.00;;;6.65;;
63943;SDS011;50121;51.218;7.664;2022-11-27T04:15:09;11.80;;;6.47;;
63943;SDS011;50121;51.218;7.664;2022-11-27T04:17:37;10.60;;;6.85;;
63943;SDS011;50121;51.218;7.664;2022-11-27T04:20:05;12.82;;;6.90;;
63943;SDS011;50121;51.218;7.664;2022-11-27T04:22:33;12.70;;;6.65;;
63943;SDS011;50121;51.218;7.664;2022-11-27T04:25:00;9.45;;;6.57;;
63943;SDS011;50121;51.218;7.664;2022-11-27T04:27:28;12.93;;;7.40;;
63943;SDS011;50121;51.218;7.664;2022-11-27T04:29:56;13.40;;;7.25;;
63943;SDS011;50121;51.218;7.664;2022-11-27T04:32:23;12.20;;;7.15;;
63943;SDS011;50121;51.218;7.664;2022-11-27T04:34:51;12.68;;;6.90;;
63943;SDS011;50121;51.218;7.664;2022-11-27T04:37:18;10.13;;;7.28;;
63943;SDS011;50121;51.218;7.664;2022-11-27T04:39:46;15.48;;;7.40;;
63943;SDS011;50121;51.218;7.664;2022-11-27T04:42:13;11.48;;;6.60;;
63943;SDS011;50121;51.218;7.664;2022-11-27T04:44:41;11.02;;;6.72;;
63943;SDS011;50121;51.218;7.664;2022-11-27T04:47:09;12.70;;;7.28;;
63943;SDS011;50121;51.218;7.664;2022-11-27T04:49:36;11.07;;;7.57;;
63943;SDS011;50121;51.218;7.664;2022-11-27T04:52:04;12.32;;;7.55;;
63943;SDS011;50121;51.218;7.664;2022-11-27T04:54:32;10.93;;;7.10;;
63943;SDS011;50121;51.218;7.664;2022-11-27T04:56:59;13.38;;;6.80;;
63943;SDS011;50121;51.218;7.664;2022-11-27T04:59:27;12.05;;;6.85;;
63943;SDS011;50121;51.218;7.664;2022-11-27T05:01:54;13.07;;;6.80;;
63943;SDS011;50121;51.218;7.664;2022-11-27T05:04:22;10.70;;;6.95;;
63943;SDS011;50121;51.218;7.664;2022-11-27T05:06:50;12.57;;;7.50;;
63943;SDS011;50121;51.218;7.664;2022-11-27T05:09:17;10.90;;;6.93;;
63943;SDS011;50121;51.218;7.664;2022-11-27T05:11:45;9.63;;;6.63;;
63943;SDS011;50121;51.218;7.664;2022-11-27T05:14:13;11.15;;;6.68;;
63943;SDS011;50121;51.218;7.664;2022-11-27T05:16:41;12.95;;;7.68;;
63943;SDS011;50121;51.218;7.664;2022-11-27T05:19:09;14.57;;;7.70;;
63943;SDS011;50121;51.218;7.664;2022-11-27T05:21:36;11.60;;;7.65;;
63943;SDS011;50121;51.218;7.664;2022-11-27T05:24:04;11.18;;;7.22;;
63943;SDS011;50121;51.218;7.664;2022-11-27T05:26:32;11.68;;;7.38;;
63943;SDS011;50121;51.218;7.664;2022-11-27T05:29:00;16.00;;;7.80;;
63943;SDS011;50121;51.218;7.664;2022-11-27T05:31:27;13.00;;;7.47;;
63943;SDS011;50121;51.218;7.664;2022-11-27T05:33:55;12.50;;;7.75;;
63943;SDS011;50121;51.218;7.664;2022-11-27T05:36:23;12.27;;;7.85;;
63943;SDS011;50121;51.218;7.664;2022-11-27T05:38:51;11.20;;;6.53;;
63943;SDS011;50121;51.218;7.664;2022-11-27T05:41:19;11.70;;;7.20;;
63943;SDS011;50121;51.218;7.664;2022-11-27T05:43:46;11.50;;;7.10;;
63943;SDS011;50121;51.218;7.664;2022-11-27T05:46:16;12.48;;;7.20;;
63943;SDS011;50121;51.218;7.664;2022-11-27T05:48:44;10.57;;;7.63;;
63943;SDS011;50121;51.218;7.664;2022-11-27T05:51:11;14.25;;;7.10;;
63943;SDS011;50121;51.218;7.664;2022-11-27T05:53:39;12.43;;;7.20;;
63943;SDS011;50121;51.218;7.664;2022-11-27T05:56:08;11.13;;;7.63;;
63943;SDS011;50121;51.218;7.664;2022-11-27T05:58:36;11.48;;;7.15;;
63943;SDS011;50121;51.218;7.664;2022-11-27T06:01:04;12.00;;;7.90;;
63943;SDS011;50121;51.218;7.664;2022-11-27T06:03:31;14.77;;;8.18;;
63943;SDS011;50121;51.218;7.664;2022-11-27T06:06:06;12.73;;;8.35;;
63943;SDS011;50121;51.218;7.664;2022-11-27T06:08:37;14.35;;;7.45;;
63943;SDS011;50121;51.218;7.664;2022-11-27T06:11:08;14.00;;;8.10;;
63943;SDS011;50121;51.218;7.664;2022-11-27T06:13:36;9.75;;;6.80;;
63943;SDS011;50121;51.218;7.664;2022-11-27T06:16:05;10.45;;;7.20;;
63943;SDS011;50121;51.218;7.664;2022-11-27T06:18:32;9.52;;;6.97;;
63943;SDS011;50121;51.218;7.664;2022-11-27T06:21:00;14.85;;;8.43;;
63943;SDS011;50121;51.218;7.664;2022-11-27T06:23:31;9.57;;;7.85;;
63943;SDS011;50121;51.218;7.664;2022-11-27T06:26:07;12.10;;;7.85;;
63943;SDS011;50121;51.218;7.664;2022-11-27T06:28:35;11.88;;;7.55;;
63943;SDS011;50121;51.218;7.664;2022-11-27T06:31:12;11.50;;;7.80;;
63943;SDS011;50121;51.218;7.664;2022-11-27T06:33:43;12.18;;;7.95;;
63943;SDS011;50121;51.218;7.664;2022-11-27T06:36:10;12.80;;;8.07;;
63943;SDS011;50121;51.218;7.664;2022-11-27T06:38:38;10.23;;;7.30;;
63943;SDS011;50121;51.218;7.664;2022-11-27T06:41:06;15.43;;;8.77;;
63943;SDS011;50121;51.218;7.664;2022-11-27T06:43:34;14.88;;;8.05;;
63943;SDS011;50121;51.218;7.664;2022-11-27T06:46:02;11.02;;;7.20;;
63943;SDS011;50121;51.218;7.664;2022-11-27T06:48:30;13.23;;;8.45;;
63943;SDS011;50121;51.218;7.664;2022-11-27T06:51:02;10.85;;;8.07;;
63943;SDS011;50121;51.218;7.664;2022-11-27T06:53:30;10.98;;;8.05;;
63943;SDS011;50121;51.218;7.664;2022-11-27T06:55:58;11.65;;;7.78;;
63943;SDS011;50121;51.218;7.664;2022-11-27T06:58:28;11.43;;;7.88;;
63943;SDS011;50121;51.218;7.664;2022-11-27T07:01:00;11.82;;;8.00;;
63943;SDS011;50121;51.218;7.664;2022-11-27T07:03:28;11.75;;;7.50;;
63943;SDS011;50121;51.218;7.664;2022-11-27T07:05:59;12.15;;;8.20;;
63943;SDS011;50121;51.218;7.664;2022-11-27T07:08:27;15.07;;;8.02;;
63943;SDS011;50121;51.218;7.664;2022-11-27T07:11:06;13.15;;;8.18;;
63943;SDS011;50121;51.218;7.664;2022-11-27T07:13:33;12.27;;;7.68;;
63943;SDS011;50121;51.218;7.664;2022-11-27T07:16:02;17.65;;;7.28;;
63943;SDS011;50121;51.218;7.664;2022-11-27T07:18:35;14.63;;;8.40;;
63943;SDS011;50121;51.218;7.664;2022-11-27T07:21:02;12.27;;;8.65;;
63943;SDS011;50121;51.218;7.664;2022-11-27T07:23:30;10.80;;;7.63;;
63943;SDS011;50121;51.218;7.664;2022-11-27T07:25:58;13.48;;;8.38;;
63943;SDS011;50121;51.218;7.664;2022-11-27T07:28:25;14.00;;;8.18;;
63943;SDS011;50121;51.218;7.664;2022-11-27T07:30:57;11.05;;;7.80;;
63943;SDS011;50121;51.218;7.664;2022-11-27T07:33:24;11.27;;;8.48;;
63943;SDS011;50121;51.218;7.664;2022-11-27T07:35:59;11.98;;;7.72;;
63943;SDS011;50121;51.218;7.664;2022-11-27T07:38:27;31.02;;;16.25;;
63943;SDS011;50121;51.218;7.664;2022-11-27T07:40:57;13.90;;;8.27;;
63943;SDS011;50121;51.218;7.664;2022-11-27T07:43:26;12.02;;;7.35;;
63943;SDS011;50121;51.218;7.664;2022-11-27T07:45:54;12.93;;;8.65;;
63943;SDS011;50121;51.218;7.664;2022-11-27T07:48:21;16.65;;;8.07;;
63943;SDS011;50121;51.218;7.664;2022-11-27T07:50:49;12.93;;;7.97;;
63943;SDS011;50121;51.218;7.664;2022-11-27T07:53:17;12.27;;;6.97;;
63943;SDS011;50121;51.218;7.664;2022-11-27T07:55:45;13.43;;;7.80;;
63943;SDS011;50121;51.218;7.664;2022-11-27T07:58:12;9.68;;;7.18;;
63943;SDS011;50121;51.218;7.664;2022-11-27T08:00:40;10.38;;;7.78;;
63943;SDS011;50121;51.218;7.664;2022-11-27T08:03:08;11.27;;;7.40;;
63943;SDS011;50121;51.218;7.664;2022-11-27T08:05:36;11.80;;;7.28;;
63943;SDS011;50121;51.218;7.664;2022-11-27T08:08:04;12.32;;;7.70;;
63943;SDS011;50121;51.218;7.664;2022-11-27T08:10:35;10.55;;;7.55;;
63943;SDS011;50121;51.218;7.664;2022-11-27T08:13:03;12.93;;;8.40;;
63943;SDS011;50121;51.218;7.664;2022-11-27T08:15:31;16.52;;;8.05;;
63943;SDS011;50121;51.218;7.664;2022-11-27T08:17:58;13.02;;;7.53;;
63943;SDS011;50121;51.218;7.664;2022-11-27T08:20:26;9.43;;;6.57;;
63943;SDS011;50121;51.218;7.664;2022-11-27T08:22:54;10.30;;;6.78;;
63943;SDS011;50121;51.218;7.664;2022-11-27T08:25:25;11.60;;;6.07;;
63943;SDS011;50121;51.218;7.664;2022-11-27T08:27:52;10.73;;;6.80;;
63943;SDS011;50121;51.218;7.664;2022-11-27T08:30:20;11.00;;;6.38;;
63943;SDS011;50121;51.218;7.664;2022-11-27T08:32:49;11.43;;;7.25;;
63943;SDS011;50121;51.218;7.664;2022-11-27T08:35:16;8.00;;;6.85;;
63943;SDS011;50121;51.218;7.664;2022-11-27T08:37:44;8.63;;;6.60;;
63943;SDS011;50121;51.218;7.664;2022-11-27T08:40:12;9.80;;;6.85;;
63943;SDS011;50121;51.218;7.664;2022-11-27T08:42:39;9.70;;;6.68;;
63943;SDS011;50121;51.218;7.664;2022-11-27T08:45:07;10.05;;;6.68;;
63943;SDS011;50121;51.218;7.664;2022-11-27T08:47:35;6.60;;;5.78;;
63943;SDS011;50121;51.218;7.664;2022-11-27T08:50:03;8.07;;;6.05;;
63943;SDS011;50121;51.218;7.664;2022-11-27T08:52:30;8.77;;;5.78;;
63943;SDS011;50121;51.218;7.664;2022-11-27T08:54:58;9.18;;;6.30;;
63943;SDS011;50121;51.218;7.664;2022-11-27T08:57:25;10.75;;;6.75;;
63943;SDS011;50121;51.218;7.664;2022-11-27T08:59:54;9.52;;;6.50;;
63943;SDS011;50121;51.218;7.664;2022-11-27T09:02:21;11.02;;;6.82;;
63943;SDS011;50121;51.218;7.664;2022-11-27T09:04:49;10.45;;;7.30;;
63943;SDS011;50121;51.218;7.664;2022-11-27T09:07:16;7.43;;;5.88;;
63943;SDS011;50121;51.218;7.664;2022-11-27T09:09:44;8.43;;;6.10;;
63943;SDS011;50121;51.218;7.664;2022-11-27T09:12:12;9.65;;;6.00;;
63943;SDS011;50121;51.218;7.664;2022-11-27T09:14:40;7.63;;;5.32;;
63943;SDS011;50121;51.218;7.664;2022-11-27T09:17:07;7.68;;;5.35;;
63943;SDS011;50121;51.218;7.664;2022-11-27T09:19:35;7.38;;;5.45;;
63943;SDS011;50121;51.218;7.664;2022-11-27T09:22:03;9.25;;;5.78;;
63943;SDS011;50121;51.218;7.664;2022-11-27T09:24:31;9.73;;;6.18;;
63943;SDS011;50121;51.218;7.664;2022-11-27T09:26:58;6.85;;;5.03;;
63943;SDS011;50121;51.218;7.664;2022-11-27T09:29:26;8.00;;;5.80;;
63943;SDS011;50121;51.218;7.664;2022-11-27T09:31:53;7.55;;;5.10;;
63943;SDS011;50121;51.218;7.664;2022-11-27T09:34:21;7.65;;;5.43;;
63943;SDS011;50121;51.218;7.664;2022-11-27T09:36:48;7.47;;;5.22;;
63943;SDS011;50121;51.218;7.664;2022-11-27T09:39:16;5.47;;;4.72;;
63943;SDS011;50121;51.218;7.664;2022-11-27T09:41:48;7.47;;;4.90;;
63943;SDS011;50121;51.218;7.664;2022-11-27T09:44:21;7.97;;;5.00;;
63943;SDS011;50121;51.218;7.664;2022-11-27T09:46:50;5.97;;;4.60;;
63943;SDS011;50121;51.218;7.664;2022-11-27T09:49:23;9.57;;;5.63;;
63943;SDS011;50121;51.218;7.664;2022-11-27T09:57:05;13.02;;;8.68;;
63943;SDS011;50121;51.218;7.664;2022-11-27T09:59:37;14.18;;;9.30;;
63943;SDS011;50121;51.218;7.664;2022-11-27T10:02:15;8.35;;;5.97;;
63943;SDS011;50121;51.218;7.664;2022-11-27T10:04:44;6.80;;;5.90;;
63943;SDS011;50121;51.218;7.664;2022-11-27T10:10:07;9.45;;;6.47;;
63943;SDS011;50121;51.218;7.664;2022-11-27T10:15:08;8.95;;;5.78;;
63943;SDS011;50121;51.218;7.664;2022-11-27T10:20:35;7.10;;;5.53;;
63943;SDS011;50121;51.218;7.664;2022-11-27T10:25:40;9.82;;;5.90;;
63943;SDS011;50121;51.218;7.664;2022-11-27T10:33:25;8.90;;;6.22;;
63943;SDS011;50121;51.218;7.664;2022-11-27T10:35:55;5.75;;;4.85;;
63943;SDS011;50121;51.218;7.664;2022-11-27T10:38:24;9.27;;;6.32;;
63943;SDS011;50121;51.218;7.664;2022-11-27T10:41:02;8.25;;;6.00;;
63943;SDS011;50121;51.218;7.664;2022-11-27T10:43:31;7.63;;;6.05;;
63943;SDS011;50121;51.218;7.664;2022-11-27T10:48:31;7.57;;;5.90;;
63943;SDS011;50121;51.218;7.664;2022-11-27T10:50:59;9.27;;;5.82;;
63943;SDS011;50121;51.218;7.664;2022-11-27T10:53:36;6.68;;;5.85;;
63943;SDS011;50121;51.218;7.664;2022-11-27T11:01:15;7.00;;;5.43;;
63943;SDS011;50121;51.218;7.664;2022-11-27T11:03:43;7.88;;;4.97;;
63943;SDS011;50121;51.218;7.664;2022-11-27T11:08:47;6.00;;;5.15;;
63943;SDS011;50121;51.218;7.664;2022-11-27T11:11:23;7.22;;;5.88;;
63943;SDS011;50121;51.218;7.664;2022-11-27T11:13:52;7.70;;;5.95;;
63943;SDS011;50121;51.218;7.664;2022-11-27T11:16:25;5.55;;;5.05;;
63943;SDS011;50121;51.218;7.664;2022-11-27T11:19:00;5.63;;;5.10;;
63943;SDS011;50121;51.218;7.664;2022-11-27T11:26:45;9.40;;;5.18;;
63943;SDS011;50121;51.218;7.664;2022-11-27T11:29:24;7.70;;;4.85;;
63943;SDS011;50121;51.218;7.664;2022-11-27T11:31:52;7.47;;;4.85;;
63943;SDS011;50121;51.218;7.664;2022-11-27T11:34:24;5.32;;;4.82;;
63943;SDS011;50121;51.218;7.664;2022-11-27T11:39:46;5.53;;;4.97;;
63943;SDS011;50121;51.218;7.664;2022-11-27T11:42:20;6.38;;;4.40;;
63943;SDS011;50121;51.218;7.664;2022-11-27T11:44:49;5.68;;;4.80;;
63943;SDS011;50121;51.218;7.664;2022-11-27T11:47:18;5.57;;;4.60;;
63943;SDS011;50121;51.218;7.664;2022-11-27T11:49:46;5.40;;;4.90;;
63943;SDS011;50121;51.218;7.664;2022-11-27T12:04:57;5.60;;;4.93;;
63943;SDS011;50121;51.218;7.664;2022-11-27T12:10:22;5.90;;;5.30;;
63943;SDS011;50121;51.218;7.664;2022-11-27T12:20:23;10.85;;;4.75;;
63943;SDS011;50121;51.218;7.664;2022-11-27T12:25:32;6.40;;;5.30;;
63943;SDS011;50121;51.218;7.664;2022-11-27T12:38:37;7.63;;;4.60;;
63943;SDS011;50121;51.218;7.664;2022-11-27T12:43:48;5.70;;;5.20;;
63943;SDS011;50121;51.218;7.664;2022-11-27T12:46:21;7.57;;;6.72;;
63943;SDS011;50121;51.218;7.664;2022-11-27T12:53:50;5.68;;;5.10;;
63943;SDS011;50121;51.218;7.664;2022-11-27T12:56:26;8.77;;;5.40;;
63943;SDS011;50121;51.218;7.664;2022-11-27T12:59:01;5.82;;;5.15;;
63943;SDS011;50121;51.218;7.664;2022-11-27T13:01:35;6.15;;;5.13;;
63943;SDS011;50121;51.218;7.664;2022-11-27T13:06:51;5.53;;;5.00;;
63943;SDS011;50121;51.218;7.664;2022-11-27T13:12:08;10.63;;;6.72;;
63943;SDS011;50121;51.218;7.664;2022-11-27T13:14:36;5.57;;;5.07;;
63943;SDS011;50121;51.218;7.664;2022-11-27T13:17:07;5.50;;;5.05;;
63943;SDS011;50121;51.218;7.664;2022-11-27T13:19:39;6.35;;;5.45;;
63943;SDS011;50121;51.218;7.664;2022-11-27T13:22:08;5.55;;;4.95;;
63943;SDS011;50121;51.218;7.664;2022-11-27T13:24:37;13.30;;;8.35;;
63943;SDS011;50121;51.218;7.664;2022-11-27T13:27:11;6.00;;;5.20;;
63943;SDS011;50121;51.218;7.664;2022-11-27T13:34:50;7.00;;;5.53;;
63943;SDS011;50121;51.218;7.664;2022-11-27T13:39:49;7.00;;;5.15;;
63943;SDS011;50121;51.218;7.664;2022-11-27T13:42:24;5.47;;;4.97;;
63943;SDS011;50121;51.218;7.664;2022-11-27T13:44:55;7.75;;;5.65;;
63943;SDS011;50121;51.218;7.664;2022-11-27T13:47:24;6.28;;;5.45;;
63943;SDS011;50121;51.218;7.664;2022-11-27T13:50:11;6.43;;;5.40;;
63943;SDS011;50121;51.218;7.664;2022-11-27T13:52:59;7.35;;;5.18;;
63943;SDS011;50121;51.218;7.664;2022-11-27T13:57:57;5.97;;;4.88;;
63943;SDS011;50121;51.218;7.664;2022-11-27T14:00:34;7.55;;;5.45;;
63943;SDS011;50121;51.218;7.664;2022-11-27T14:03:02;7.30;;;5.15;;
63943;SDS011;50121;51.218;7.664;2022-11-27T14:05:34;5.57;;;5.05;;
63943;SDS011;50121;51.218;7.664;2022-11-27T14:08:03;5.80;;;5.15;;
63943;SDS011;50121;51.218;7.664;2022-11-27T14:10:31;5.90;;;4.70;;
63943;SDS011;50121;51.218;7.664;2022-11-27T14:15:30;7.50;;;5.22;;
63943;SDS011;50121;51.218;7.664;2022-11-27T14:18:18;6.95;;;4.90;;
63943;SDS011;50121;51.218;7.664;2022-11-27T14:20:51;7.57;;;6.00;;
63943;SDS011;50121;51.218;7.664;2022-11-27T14:26:06;6.35;;;5.05;;
63943;SDS011;50121;51.218;7.664;2022-11-27T14:28:38;6.72;;;5.10;;
63943;SDS011;50121;51.218;7.664;2022-11-27T14:33:53;6.75;;;5.30;;
63943;SDS011;50121;51.218;7.664;2022-11-27T14:36:40;5.47;;;4.97;;
63943;SDS011;50121;51.218;7.664;2022-11-27T14:39:18;5.90;;;4.80;;
63943;SDS011;50121;51.218;7.664;2022-11-27T14:41:54;6.30;;;4.72;;
63943;SDS011;50121;51.218;7.664;2022-11-27T14:44:22;6.30;;;4.93;;
63943;SDS011;50121;51.218;7.664;2022-11-27T14:46:50;5.70;;;4.90;;
63943;SDS011;50121;51.218;7.664;2022-11-27T14:49:18;5.63;;;5.13;;
63943;SDS011;50121;51.218;7.664;2022-11-27T14:51:51;10.53;;;8.10;;
63943;SDS011;50121;51.218;7.664;2022-11-27T14:54:23;5.97;;;5.18;;
63943;SDS011;50121;51.218;7.664;2022-11-27T14:56:52;5.60;;;4.90;;
63943;SDS011;50121;51.218;7.664;2022-11-27T14:59:20;6.85;;;5.20;;
63943;SDS011;50121;51.218;7.664;2022-11-27T15:01:59;6.20;;;5.00;;
63943;SDS011;50121;51.218;7.664;2022-11-27T15:06:54;6.43;;;5.15;;
63943;SDS011;50121;51.218;7.664;2022-11-27T15:09:24;5.50;;;4.82;;
63943;SDS011;50121;51.218;7.664;2022-11-27T15:11:57;5.45;;;4.95;;
63943;SDS011;50121;51.218;7.664;2022-11-27T15:14:25;5.70;;;5.20;;
63943;SDS011;50121;51.218;7.664;2022-11-27T15:16:54;5.20;;;4.80;;
63943;SDS011;50121;51.218;7.664;2022-11-27T15:19:24;5.60;;;5.07;;
63943;SDS011;50121;51.218;7.664;2022-11-27T15:21:52;6.15;;;4.93;;
63943;SDS011;50121;51.218;7.664;2022-11-27T15:24:39;7.43;;;4.60;;
63943;SDS011;50121;51.218;7.664;2022-11-27T15:29:41;7.00;;;4.53;;
63943;SDS011;50121;51.218;7.664;2022-11-27T15:32:15;6.43;;;4.78;;
63943;SDS011;50121;51.218;7.664;2022-11-27T15:34:46;5.07;;;4.60;;
63943;SDS011;50121;51.218;7.664;2022-11-27T15:37:27;4.82;;;4.40;;
63943;SDS011;50121;51.218;7.664;2022-11-27T15:40:01;4.80;;;4.40;;
63943;SDS011;50121;51.218;7.664;2022-11-27T15:42:29;6.40;;;4.90;;
63943;SDS011;50121;51.218;7.664;2022-11-27T15:44:58;6.68;;;5.95;;
63943;SDS011;50121;51.218;7.664;2022-11-27T15:47:29;7.97;;;5.60;;
63943;SDS011;50121;51.218;7.664;2022-11-27T15:49:58;6.00;;;4.90;;
63943;SDS011;50121;51.218;7.664;2022-11-27T15:52:25;6.97;;;5.38;;
63943;SDS011;50121;51.218;7.664;2022-11-27T15:54:53;5.68;;;5.10;;
63943;SDS011;50121;51.218;7.664;2022-11-27T15:57:22;6.07;;;5.47;;
63943;SDS011;50121;51.218;7.664;2022-11-27T15:59:51;6.03;;;5.53;;
63943;SDS011;50121;51.218;7.664;2022-11-27T16:02:19;5.43;;;4.93;;
63943;SDS011;50121;51.218;7.664;2022-11-27T16:04:47;5.38;;;4.78;;
63943;SDS011;50121;51.218;7.664;2022-11-27T16:07:15;5.97;;;5.35;;
63943;SDS011;50121;51.218;7.664;2022-11-27T16:09:43;5.80;;;5.20;;
63943;SDS011;50121;51.218;7.664;2022-11-27T16:12:10;6.68;;;5.30;;
63943;SDS011;50121;51.218;7.664;2022-11-27T16:14:38;6.43;;;5.20;;
63943;SDS011;50121;51.218;7.664;2022-11-27T16:17:06;7.25;;;5.13;;
63943;SDS011;50121;51.218;7.664;2022-11-27T16:19:33;6.55;;;4.85;;
63943;SDS011;50121;51.218;7.664;2022-11-27T16:22:01;6.32;;;5.53;;
63943;SDS011;50121;51.218;7.664;2022-11-27T16:24:28;5.90;;;4.90;;
63943;SDS011;50121;51.218;7.664;2022-11-27T16:26:57;5.63;;;5.13;;
63943;SDS011;50121;51.218;7.664;2022-11-27T16:29:25;7.28;;;5.50;;
63943;SDS011;50121;51.218;7.664;2022-11-27T16:31:52;6.55;;;5.45;;
63943;SDS011;50121;51.218;7.664;2022-11-27T16:34:21;6.57;;;5.47;;
63943;SDS011;50121;51.218;7.664;2022-11-27T16:36:50;8.13;;;5.18;;
63943;SDS011;50121;51.218;7.664;2022-11-27T16:39:17;6.65;;;5.47;;
63943;SDS011;50121;51.218;7.664;2022-11-27T16:41:45;6.70;;;6.00;;
63943;SDS011;50121;51.218;7.664;2022-11-27T16:44:13;6.47;;;5.47;;
63943;SDS011;50121;51.218;7.664;2022-11-27T16:46:42;9.48;;;7.38;;
63943;SDS011;50121;51.218;7.664;2022-11-27T16:49:10;7.97;;;5.68;;
63943;SDS011;50121;51.218;7.664;2022-11-27T16:51:39;7.45;;;5.10;;
63943;SDS011;50121;51.218;7.664;2022-11-27T16:54:10;6.38;;;5.45;;
63943;SDS011;50121;51.218;7.664;2022-11-27T16:56:40;6.55;;;5.85;;
63943;SDS011;50121;51.218;7.664;2022-11-27T16:59:08;6.80;;;5.60;;
63943;SDS011;50121;51.218;7.664;2022-11-27T17:01:37;7.43;;;5.70;;
63943;SDS011;50121;51.218;7.664;2022-11-27T17:04:06;6.40;;;5.22;;
63943;SDS011;50121;51.218;7.664;2022-11-27T17:06:36;7.07;;;5.88;;
63943;SDS011;50121;51.218;7.664;2022-11-27T17:09:04;8.82;;;5.80;;
63943;SDS011;50121;51.218;7.664;2022-11-27T17:11:32;6.55;;;5.75;;
63943;SDS011;50121;51.218;7.664;2022-11-27T17:14:03;6.82;;;5.90;;
63943;SDS011;50121;51.218;7.664;2022-11-27T17:16:34;6.47;;;5.82;;
63943;SDS011;50121;51.218;7.664;2022-11-27T17:19:03;8.40;;;6.88;;
63943;SDS011;50121;51.218;7.664;2022-11-27T17:21:31;10.52;;;6.78;;